Preview of NWS' New Version of Forecast
This preview is not operational and should not be used for support decisions.

Terminal Aerodrome Forecast (TAF)

Issued by National Weather Service (NWS)

                            
000
FTUS43 KDMX 161320 AAA
TAFALO
TAF AMD
KALO 161320Z 1613/1712 11004KT 3SM BR SCT002
      TEMPO 1613/1614 1SM BR
     FM161400 13005KT 5SM BR SCT003
      TEMPO 1614/1615 2SM BR
     FM161530 15009KT P6SM SCT250
     FM170000 14006KT P6SM SCT250
     FM170900 14007KT 5SM BR SCT250=